sensor_id;sensor_type;location;lat;lon;timestamp;temperature;humidity
41220;DHT22;26951;47.338;9.196;2023-08-07T00:00:52;10.70;56.80
41220;DHT22;26951;47.338;9.196;2023-08-07T00:03:36;10.70;58.60
41220;DHT22;26951;47.338;9.196;2023-08-07T00:06:20;10.70;58.20
41220;DHT22;26951;47.338;9.196;2023-08-07T00:09:04;10.70;58.60
41220;DHT22;26951;47.338;9.196;2023-08-07T00:11:49;10.80;58.00
41220;DHT22;26951;47.338;9.196;2023-08-07T00:14:33;10.80;58.80
41220;DHT22;26951;47.338;9.196;2023-08-07T00:17:17;10.80;57.50
41220;DHT22;26951;47.338;9.196;2023-08-07T00:20:01;10.80;57.80
41220;DHT22;26951;47.338;9.196;2023-08-07T00:22:45;10.70;59.20
41220;DHT22;26951;47.338;9.196;2023-08-07T00:25:29;10.70;59.00
41220;DHT22;26951;47.338;9.196;2023-08-07T00:28:13;10.80;59.80
41220;DHT22;26951;47.338;9.196;2023-08-07T00:30:57;10.80;59.40
41220;DHT22;26951;47.338;9.196;2023-08-07T00:33:41;10.80;59.50
41220;DHT22;26951;47.338;9.196;2023-08-07T00:36:26;10.80;58.60
41220;DHT22;26951;47.338;9.196;2023-08-07T00:39:12;10.80;59.30
41220;DHT22;26951;47.338;9.196;2023-08-07T00:41:57;10.80;59.40
41220;DHT22;26951;47.338;9.196;2023-08-07T00:44:41;10.80;58.90
41220;DHT22;26951;47.338;9.196;2023-08-07T00:47:26;10.80;59.00
41220;DHT22;26951;47.338;9.196;2023-08-07T00:50:10;10.80;58.40
41220;DHT22;26951;47.338;9.196;2023-08-07T00:52:55;10.80;58.00
41220;DHT22;26951;47.338;9.196;2023-08-07T00:55:41;10.70;58.20
41220;DHT22;26951;47.338;9.196;2023-08-07T00:58:25;10.80;58.40
41220;DHT22;26951;47.338;9.196;2023-08-07T01:04:47;10.80;57.80
41220;DHT22;26951;47.338;9.196;2023-08-07T01:07:31;10.80;57.10
41220;DHT22;26951;47.338;9.196;2023-08-07T01:10:15;10.70;57.30
41220;DHT22;26951;47.338;9.196;2023-08-07T01:13:16;10.70;56.60
41220;DHT22;26951;47.338;9.196;2023-08-07T01:16:17;10.70;57.60
41220;DHT22;26951;47.338;9.196;2023-08-07T01:19:03;10.70;57.40
41220;DHT22;26951;47.338;9.196;2023-08-07T01:21:48;10.70;57.90
41220;DHT22;26951;47.338;9.196;2023-08-07T01:24:34;10.70;57.50
41220;DHT22;26951;47.338;9.196;2023-08-07T01:30:14;10.70;57.70
41220;DHT22;26951;47.338;9.196;2023-08-07T01:33:09;10.70;57.80
41220;DHT22;26951;47.338;9.196;2023-08-07T01:35:56;10.70;57.60
41220;DHT22;26951;47.338;9.196;2023-08-07T01:38:41;10.70;58.10
41220;DHT22;26951;47.338;9.196;2023-08-07T01:41:27;10.70;57.60
41220;DHT22;26951;47.338;9.196;2023-08-07T01:44:12;10.60;57.80
41220;DHT22;26951;47.338;9.196;2023-08-07T01:46:56;10.70;57.80
41220;DHT22;26951;47.338;9.196;2023-08-07T01:49:41;10.70;57.90
41220;DHT22;26951;47.338;9.196;2023-08-07T01:52:25;10.70;57.60
41220;DHT22;26951;47.338;9.196;2023-08-07T01:55:10;10.70;58.50
41220;DHT22;26951;47.338;9.196;2023-08-07T01:57:54;10.60;59.70
41220;DHT22;26951;47.338;9.196;2023-08-07T02:00:38;10.50;60.10
41220;DHT22;26951;47.338;9.196;2023-08-07T02:03:22;10.60;60.90
41220;DHT22;26951;47.338;9.196;2023-08-07T02:06:06;10.50;61.00
41220;DHT22;26951;47.338;9.196;2023-08-07T02:08:50;10.60;62.10
41220;DHT22;26951;47.338;9.196;2023-08-07T02:11:34;10.60;62.40
41220;DHT22;26951;47.338;9.196;2023-08-07T02:14:18;10.50;62.20
41220;DHT22;26951;47.338;9.196;2023-08-07T02:17:03;10.60;63.30
41220;DHT22;26951;47.338;9.196;2023-08-07T02:19:47;10.60;62.20
41220;DHT22;26951;47.338;9.196;2023-08-07T02:22:31;10.50;62.70
41220;DHT22;26951;47.338;9.196;2023-08-07T02:25:15;10.50;63.20
41220;DHT22;26951;47.338;9.196;2023-08-07T02:28:00;10.50;64.00
41220;DHT22;26951;47.338;9.196;2023-08-07T02:30:45;10.60;63.80
41220;DHT22;26951;47.338;9.196;2023-08-07T02:33:32;10.50;63.50
41220;DHT22;26951;47.338;9.196;2023-08-07T02:36:16;10.50;63.60
41220;DHT22;26951;47.338;9.196;2023-08-07T02:39:00;10.60;63.80
41220;DHT22;26951;47.338;9.196;2023-08-07T02:41:44;10.50;64.00
41220;DHT22;26951;47.338;9.196;2023-08-07T02:44:28;10.50;64.90
41220;DHT22;26951;47.338;9.196;2023-08-07T02:47:12;10.50;65.60
41220;DHT22;26951;47.338;9.196;2023-08-07T02:49:56;10.40;64.50
41220;DHT22;26951;47.338;9.196;2023-08-07T02:52:41;10.40;64.20
41220;DHT22;26951;47.338;9.196;2023-08-07T02:55:25;10.30;64.70
41220;DHT22;26951;47.338;9.196;2023-08-07T02:58:09;10.30;65.30
41220;DHT22;26951;47.338;9.196;2023-08-07T03:00:53;10.40;65.50
41220;DHT22;26951;47.338;9.196;2023-08-07T03:03:37;10.40;65.60
41220;DHT22;26951;47.338;9.196;2023-08-07T03:06:21;10.40;65.50
41220;DHT22;26951;47.338;9.196;2023-08-07T03:09:05;10.40;65.30
41220;DHT22;26951;47.338;9.196;2023-08-07T03:11:49;10.50;65.40
41220;DHT22;26951;47.338;9.196;2023-08-07T03:14:34;10.40;65.60
41220;DHT22;26951;47.338;9.196;2023-08-07T03:17:18;10.40;66.10
41220;DHT22;26951;47.338;9.196;2023-08-07T03:20:04;10.40;65.60
41220;DHT22;26951;47.338;9.196;2023-08-07T03:22:49;10.40;65.10
41220;DHT22;26951;47.338;9.196;2023-08-07T03:25:33;10.40;65.20
41220;DHT22;26951;47.338;9.196;2023-08-07T03:28:17;10.40;65.60
41220;DHT22;26951;47.338;9.196;2023-08-07T03:31:02;10.40;65.90
41220;DHT22;26951;47.338;9.196;2023-08-07T03:33:46;10.30;65.90
41220;DHT22;26951;47.338;9.196;2023-08-07T03:36:30;10.30;65.80
41220;DHT22;26951;47.338;9.196;2023-08-07T03:39:14;10.40;67.10
41220;DHT22;26951;47.338;9.196;2023-08-07T03:41:58;10.40;68.10
41220;DHT22;26951;47.338;9.196;2023-08-07T03:44:42;10.40;67.80
41220;DHT22;26951;47.338;9.196;2023-08-07T03:47:26;10.40;68.10
41220;DHT22;26951;47.338;9.196;2023-08-07T03:50:11;10.50;67.20
41220;DHT22;26951;47.338;9.196;2023-08-07T03:52:55;10.50;67.60
41220;DHT22;26951;47.338;9.196;2023-08-07T03:55:39;10.50;67.10
41220;DHT22;26951;47.338;9.196;2023-08-07T03:58:24;10.50;67.70
41220;DHT22;26951;47.338;9.196;2023-08-07T04:01:09;10.50;68.30
41220;DHT22;26951;47.338;9.196;2023-08-07T04:03:54;10.60;68.20
41220;DHT22;26951;47.338;9.196;2023-08-07T04:06:38;10.60;67.00
41220;DHT22;26951;47.338;9.196;2023-08-07T04:09:22;10.60;66.40
41220;DHT22;26951;47.338;9.196;2023-08-07T04:12:07;10.60;67.20
41220;DHT22;26951;47.338;9.196;2023-08-07T04:14:51;10.60;67.40
41220;DHT22;26951;47.338;9.196;2023-08-07T04:17:35;10.60;68.10
41220;DHT22;26951;47.338;9.196;2023-08-07T04:20:19;10.60;67.00
41220;DHT22;26951;47.338;9.196;2023-08-07T04:23:04;10.60;67.30
41220;DHT22;26951;47.338;9.196;2023-08-07T04:25:48;10.60;68.20
41220;DHT22;26951;47.338;9.196;2023-08-07T04:28:33;10.60;67.60
41220;DHT22;26951;47.338;9.196;2023-08-07T04:31:17;10.60;67.80
41220;DHT22;26951;47.338;9.196;2023-08-07T04:34:01;10.60;67.70
41220;DHT22;26951;47.338;9.196;2023-08-07T04:36:45;10.60;67.10
41220;DHT22;26951;47.338;9.196;2023-08-07T04:39:29;10.60;67.30
41220;DHT22;26951;47.338;9.196;2023-08-07T04:42:15;10.60;66.20
41220;DHT22;26951;47.338;9.196;2023-08-07T04:44:59;10.60;66.10
41220;DHT22;26951;47.338;9.196;2023-08-07T04:47:43;10.60;66.00
41220;DHT22;26951;47.338;9.196;2023-08-07T04:50:27;10.60;66.40
41220;DHT22;26951;47.338;9.196;2023-08-07T04:53:11;10.60;66.90
41220;DHT22;26951;47.338;9.196;2023-08-07T04:55:55;10.60;67.60
41220;DHT22;26951;47.338;9.196;2023-08-07T04:58:39;10.50;68.10
41220;DHT22;26951;47.338;9.196;2023-08-07T05:01:23;10.60;68.70
41220;DHT22;26951;47.338;9.196;2023-08-07T05:04:07;10.60;68.40
41220;DHT22;26951;47.338;9.196;2023-08-07T05:06:51;10.60;67.70
41220;DHT22;26951;47.338;9.196;2023-08-07T05:09:36;10.60;67.60
41220;DHT22;26951;47.338;9.196;2023-08-07T05:12:20;10.70;67.60
41220;DHT22;26951;47.338;9.196;2023-08-07T05:15:05;10.70;67.20
41220;DHT22;26951;47.338;9.196;2023-08-07T05:17:50;10.60;67.20
41220;DHT22;26951;47.338;9.196;2023-08-07T05:20:34;10.70;67.50
41220;DHT22;26951;47.338;9.196;2023-08-07T05:23:18;10.70;68.00
41220;DHT22;26951;47.338;9.196;2023-08-07T05:26:02;10.70;67.80
41220;DHT22;26951;47.338;9.196;2023-08-07T05:28:47;10.70;67.90
41220;DHT22;26951;47.338;9.196;2023-08-07T05:31:31;10.60;67.10
41220;DHT22;26951;47.338;9.196;2023-08-07T05:34:15;10.70;68.80
41220;DHT22;26951;47.338;9.196;2023-08-07T05:36:59;10.70;68.10
41220;DHT22;26951;47.338;9.196;2023-08-07T05:39:44;10.70;67.50
41220;DHT22;26951;47.338;9.196;2023-08-07T05:42:28;10.80;67.30
41220;DHT22;26951;47.338;9.196;2023-08-07T05:45:12;10.80;67.50
41220;DHT22;26951;47.338;9.196;2023-08-07T05:47:56;10.80;67.60
41220;DHT22;26951;47.338;9.196;2023-08-07T05:50:40;10.80;67.70
41220;DHT22;26951;47.338;9.196;2023-08-07T05:53:25;10.90;67.50
41220;DHT22;26951;47.338;9.196;2023-08-07T05:56:09;10.90;66.50
41220;DHT22;26951;47.338;9.196;2023-08-07T05:58:53;10.90;66.00
41220;DHT22;26951;47.338;9.196;2023-08-07T06:01:38;11.00;65.70
41220;DHT22;26951;47.338;9.196;2023-08-07T06:04:22;11.00;66.30
41220;DHT22;26951;47.338;9.196;2023-08-07T06:07:06;11.10;66.60
41220;DHT22;26951;47.338;9.196;2023-08-07T06:09:51;11.10;66.70
41220;DHT22;26951;47.338;9.196;2023-08-07T06:12:35;11.20;67.80
41220;DHT22;26951;47.338;9.196;2023-08-07T06:15:19;11.20;67.80
41220;DHT22;26951;47.338;9.196;2023-08-07T06:18:03;11.30;66.40
41220;DHT22;26951;47.338;9.196;2023-08-07T06:20:48;11.40;65.30
41220;DHT22;26951;47.338;9.196;2023-08-07T06:23:35;11.40;62.50
41220;DHT22;26951;47.338;9.196;2023-08-07T06:26:19;11.40;62.50
41220;DHT22;26951;47.338;9.196;2023-08-07T06:29:03;11.40;62.20
41220;DHT22;26951;47.338;9.196;2023-08-07T06:31:48;11.40;61.10
41220;DHT22;26951;47.338;9.196;2023-08-07T06:34:32;11.40;61.20
41220;DHT22;26951;47.338;9.196;2023-08-07T06:37:16;11.40;61.40
41220;DHT22;26951;47.338;9.196;2023-08-07T06:40:00;11.40;61.60
41220;DHT22;26951;47.338;9.196;2023-08-07T06:42:45;11.40;61.60
41220;DHT22;26951;47.338;9.196;2023-08-07T06:45:29;11.40;61.70
41220;DHT22;26951;47.338;9.196;2023-08-07T06:48:13;11.40;62.50
41220;DHT22;26951;47.338;9.196;2023-08-07T06:50:58;11.30;60.70
41220;DHT22;26951;47.338;9.196;2023-08-07T06:53:42;11.30;61.50
41220;DHT22;26951;47.338;9.196;2023-08-07T06:56:26;11.30;60.30
41220;DHT22;26951;47.338;9.196;2023-08-07T06:59:10;11.40;61.00
41220;DHT22;26951;47.338;9.196;2023-08-07T07:01:54;11.40;59.70
41220;DHT22;26951;47.338;9.196;2023-08-07T07:04:39;11.30;59.50
41220;DHT22;26951;47.338;9.196;2023-08-07T07:07:23;11.20;59.60
41220;DHT22;26951;47.338;9.196;2023-08-07T07:10:07;11.30;60.10
41220;DHT22;26951;47.338;9.196;2023-08-07T07:12:52;11.20;59.50
41220;DHT22;26951;47.338;9.196;2023-08-07T07:15:36;11.20;60.00
41220;DHT22;26951;47.338;9.196;2023-08-07T07:18:20;11.20;60.10
41220;DHT22;26951;47.338;9.196;2023-08-07T07:21:04;11.30;59.60
41220;DHT22;26951;47.338;9.196;2023-08-07T07:23:48;11.30;59.20
41220;DHT22;26951;47.338;9.196;2023-08-07T07:26:32;11.20;59.50
41220;DHT22;26951;47.338;9.196;2023-08-07T07:29:17;11.20;59.50
41220;DHT22;26951;47.338;9.196;2023-08-07T07:32:03;11.20;59.20
41220;DHT22;26951;47.338;9.196;2023-08-07T07:34:47;11.20;58.70
41220;DHT22;26951;47.338;9.196;2023-08-07T07:37:31;11.30;58.70
41220;DHT22;26951;47.338;9.196;2023-08-07T07:40:16;11.30;58.20
41220;DHT22;26951;47.338;9.196;2023-08-07T07:43:00;11.30;59.00
41220;DHT22;26951;47.338;9.196;2023-08-07T07:45:44;11.30;59.40
41220;DHT22;26951;47.338;9.196;2023-08-07T07:48:28;11.30;59.60
41220;DHT22;26951;47.338;9.196;2023-08-07T07:51:12;11.30;59.50
41220;DHT22;26951;47.338;9.196;2023-08-07T07:53:57;11.30;58.40
41220;DHT22;26951;47.338;9.196;2023-08-07T07:56:42;11.20;58.20
41220;DHT22;26951;47.338;9.196;2023-08-07T07:59:27;11.20;58.80
41220;DHT22;26951;47.338;9.196;2023-08-07T08:02:11;11.30;59.40
41220;DHT22;26951;47.338;9.196;2023-08-07T08:04:56;11.30;59.10
41220;DHT22;26951;47.338;9.196;2023-08-07T08:07:40;11.30;59.90
41220;DHT22;26951;47.338;9.196;2023-08-07T08:10:24;11.40;58.60
41220;DHT22;26951;47.338;9.196;2023-08-07T08:13:09;11.40;58.30
41220;DHT22;26951;47.338;9.196;2023-08-07T08:15:53;11.40;58.10
41220;DHT22;26951;47.338;9.196;2023-08-07T08:18:38;11.60;57.30
41220;DHT22;26951;47.338;9.196;2023-08-07T08:21:22;11.50;56.90
41220;DHT22;26951;47.338;9.196;2023-08-07T08:24:06;11.50;57.60
41220;DHT22;26951;47.338;9.196;2023-08-07T08:26:50;11.50;56.80
41220;DHT22;26951;47.338;9.196;2023-08-07T08:29:34;11.50;58.10
41220;DHT22;26951;47.338;9.196;2023-08-07T08:32:18;11.50;58.20
41220;DHT22;26951;47.338;9.196;2023-08-07T08:35:03;11.60;58.90
41220;DHT22;26951;47.338;9.196;2023-08-07T08:37:47;11.70;59.30
41220;DHT22;26951;47.338;9.196;2023-08-07T08:40:31;11.70;58.00
41220;DHT22;26951;47.338;9.196;2023-08-07T08:43:15;11.70;57.80
41220;DHT22;26951;47.338;9.196;2023-08-07T08:46:01;11.70;58.70
41220;DHT22;26951;47.338;9.196;2023-08-07T08:48:50;11.60;58.00
41220;DHT22;26951;47.338;9.196;2023-08-07T08:51:35;11.60;58.70
41220;DHT22;26951;47.338;9.196;2023-08-07T08:54:20;11.60;59.10
41220;DHT22;26951;47.338;9.196;2023-08-07T08:57:06;11.70;59.70
41220;DHT22;26951;47.338;9.196;2023-08-07T08:59:51;11.60;60.70
41220;DHT22;26951;47.338;9.196;2023-08-07T09:02:35;11.60;60.90
41220;DHT22;26951;47.338;9.196;2023-08-07T09:05:20;11.60;61.40
41220;DHT22;26951;47.338;9.196;2023-08-07T09:08:05;11.60;61.80
41220;DHT22;26951;47.338;9.196;2023-08-07T09:10:50;11.70;63.20
41220;DHT22;26951;47.338;9.196;2023-08-07T09:13:37;11.70;64.10
41220;DHT22;26951;47.338;9.196;2023-08-07T09:16:22;11.70;63.10
41220;DHT22;26951;47.338;9.196;2023-08-07T09:19:09;11.70;63.40
41220;DHT22;26951;47.338;9.196;2023-08-07T09:21:53;11.70;63.50
41220;DHT22;26951;47.338;9.196;2023-08-07T09:24:38;11.50;62.90
41220;DHT22;26951;47.338;9.196;2023-08-07T09:27:22;11.50;64.20
41220;DHT22;26951;47.338;9.196;2023-08-07T09:30:07;11.30;63.10
41220;DHT22;26951;47.338;9.196;2023-08-07T09:32:53;11.40;64.40
41220;DHT22;26951;47.338;9.196;2023-08-07T09:35:39;11.30;64.00
41220;DHT22;26951;47.338;9.196;2023-08-07T09:38:23;11.40;65.50
41220;DHT22;26951;47.338;9.196;2023-08-07T09:41:07;11.40;65.60
41220;DHT22;26951;47.338;9.196;2023-08-07T09:43:51;11.40;65.70
41220;DHT22;26951;47.338;9.196;2023-08-07T09:46:44;11.40;64.00
41220;DHT22;26951;47.338;9.196;2023-08-07T09:49:35;11.60;67.20
41220;DHT22;26951;47.338;9.196;2023-08-07T09:52:18;11.80;68.10
41220;DHT22;26951;47.338;9.196;2023-08-07T09:55:02;11.90;66.20
41220;DHT22;26951;47.338;9.196;2023-08-07T09:57:48;12.00;67.60
41220;DHT22;26951;47.338;9.196;2023-08-07T10:00:34;12.20;68.50
41220;DHT22;26951;47.338;9.196;2023-08-07T10:03:20;12.50;67.60
41220;DHT22;26951;47.338;9.196;2023-08-07T10:06:06;12.80;69.60
41220;DHT22;26951;47.338;9.196;2023-08-07T10:08:51;13.00;68.50
41220;DHT22;26951;47.338;9.196;2023-08-07T10:11:37;13.10;65.00
41220;DHT22;26951;47.338;9.196;2023-08-07T10:14:22;13.10;69.40
41220;DHT22;26951;47.338;9.196;2023-08-07T10:17:07;13.30;65.70
41220;DHT22;26951;47.338;9.196;2023-08-07T10:19:51;13.40;63.60
41220;DHT22;26951;47.338;9.196;2023-08-07T10:22:38;13.50;61.20
41220;DHT22;26951;47.338;9.196;2023-08-07T10:25:23;13.50;63.40
41220;DHT22;26951;47.338;9.196;2023-08-07T10:28:08;13.60;62.40
41220;DHT22;26951;47.338;9.196;2023-08-07T10:30:54;13.80;64.10
41220;DHT22;26951;47.338;9.196;2023-08-07T10:33:40;13.90;61.40
41220;DHT22;26951;47.338;9.196;2023-08-07T10:36:32;14.00;61.80
41220;DHT22;26951;47.338;9.196;2023-08-07T10:39:18;14.00;59.80
41220;DHT22;26951;47.338;9.196;2023-08-07T10:42:02;13.90;57.50
41220;DHT22;26951;47.338;9.196;2023-08-07T10:44:48;13.80;56.40
41220;DHT22;26951;47.338;9.196;2023-08-07T10:47:34;13.90;63.10
41220;DHT22;26951;47.338;9.196;2023-08-07T10:50:18;14.10;57.10
41220;DHT22;26951;47.338;9.196;2023-08-07T10:53:03;14.10;57.60
41220;DHT22;26951;47.338;9.196;2023-08-07T10:55:49;14.10;55.40
41220;DHT22;26951;47.338;9.196;2023-08-07T10:58:33;14.10;55.60
41220;DHT22;26951;47.338;9.196;2023-08-07T11:04:15;14.40;56.40
41220;DHT22;26951;47.338;9.196;2023-08-07T11:06:59;14.60;55.70
41220;DHT22;26951;47.338;9.196;2023-08-07T11:09:43;14.80;55.00
41220;DHT22;26951;47.338;9.196;2023-08-07T11:12:28;14.90;53.10
41220;DHT22;26951;47.338;9.196;2023-08-07T11:15:12;14.90;50.20
41220;DHT22;26951;47.338;9.196;2023-08-07T11:17:57;14.70;49.70
41220;DHT22;26951;47.338;9.196;2023-08-07T11:20:42;14.50;47.70
41220;DHT22;26951;47.338;9.196;2023-08-07T11:23:26;14.50;50.40
41220;DHT22;26951;47.338;9.196;2023-08-07T11:26:11;14.50;49.90
41220;DHT22;26951;47.338;9.196;2023-08-07T11:28:56;14.30;52.70
41220;DHT22;26951;47.338;9.196;2023-08-07T11:31:40;14.10;50.90
41220;DHT22;26951;47.338;9.196;2023-08-07T11:34:24;14.00;54.50
41220;DHT22;26951;47.338;9.196;2023-08-07T11:37:15;13.80;53.10
41220;DHT22;26951;47.338;9.196;2023-08-07T11:40:03;13.70;57.30
41220;DHT22;26951;47.338;9.196;2023-08-07T11:42:47;13.70;57.70
41220;DHT22;26951;47.338;9.196;2023-08-07T11:45:31;13.40;57.00
41220;DHT22;26951;47.338;9.196;2023-08-07T11:48:15;13.40;58.30
41220;DHT22;26951;47.338;9.196;2023-08-07T11:51:00;13.20;58.40
41220;DHT22;26951;47.338;9.196;2023-08-07T11:53:45;13.10;58.80
41220;DHT22;26951;47.338;9.196;2023-08-07T11:56:30;13.00;61.20
41220;DHT22;26951;47.338;9.196;2023-08-07T11:59:16;12.90;59.80
41220;DHT22;26951;47.338;9.196;2023-08-07T12:02:09;12.90;58.40
41220;DHT22;26951;47.338;9.196;2023-08-07T12:04:58;12.90;61.20
41220;DHT22;26951;47.338;9.196;2023-08-07T12:07:42;12.90;61.10
41220;DHT22;26951;47.338;9.196;2023-08-07T12:10:27;12.90;63.50
41220;DHT22;26951;47.338;9.196;2023-08-07T12:13:12;13.00;64.40
41220;DHT22;26951;47.338;9.196;2023-08-07T12:15:57;13.20;69.20
41220;DHT22;26951;47.338;9.196;2023-08-07T12:18:49;13.50;67.60
41220;DHT22;26951;47.338;9.196;2023-08-07T12:21:33;13.70;65.90
41220;DHT22;26951;47.338;9.196;2023-08-07T12:24:18;13.80;64.30
41220;DHT22;26951;47.338;9.196;2023-08-07T12:27:04;13.80;61.50
41220;DHT22;26951;47.338;9.196;2023-08-07T12:29:49;13.80;60.80
41220;DHT22;26951;47.338;9.196;2023-08-07T12:32:34;13.80;60.70
41220;DHT22;26951;47.338;9.196;2023-08-07T12:35:17;13.90;61.70
41220;DHT22;26951;47.338;9.196;2023-08-07T12:38:02;13.90;62.60
41220;DHT22;26951;47.338;9.196;2023-08-07T12:40:47;13.90;60.10
41220;DHT22;26951;47.338;9.196;2023-08-07T12:43:31;13.90;62.00
41220;DHT22;26951;47.338;9.196;2023-08-07T12:46:15;13.90;59.60
41220;DHT22;26951;47.338;9.196;2023-08-07T12:48:59;13.90;60.10
41220;DHT22;26951;47.338;9.196;2023-08-07T12:51:43;13.90;62.40
41220;DHT22;26951;47.338;9.196;2023-08-07T12:54:27;13.70;57.10
41220;DHT22;26951;47.338;9.196;2023-08-07T12:57:11;13.60;52.50
41220;DHT22;26951;47.338;9.196;2023-08-07T12:59:55;13.20;53.30
41220;DHT22;26951;47.338;9.196;2023-08-07T13:02:44;13.10;56.40
41220;DHT22;26951;47.338;9.196;2023-08-07T13:05:29;13.20;56.20
41220;DHT22;26951;47.338;9.196;2023-08-07T13:08:15;13.40;59.40
41220;DHT22;26951;47.338;9.196;2023-08-07T13:10:59;13.70;57.30
41220;DHT22;26951;47.338;9.196;2023-08-07T13:13:43;14.00;63.60
41220;DHT22;26951;47.338;9.196;2023-08-07T13:16:27;14.40;60.40
41220;DHT22;26951;47.338;9.196;2023-08-07T13:19:11;14.80;58.70
41220;DHT22;26951;47.338;9.196;2023-08-07T13:21:55;14.90;56.80
41220;DHT22;26951;47.338;9.196;2023-08-07T13:24:39;15.00;54.40
41220;DHT22;26951;47.338;9.196;2023-08-07T13:27:23;15.00;55.30
41220;DHT22;26951;47.338;9.196;2023-08-07T13:30:08;15.00;56.40
41220;DHT22;26951;47.338;9.196;2023-08-07T13:32:53;15.00;58.60
41220;DHT22;26951;47.338;9.196;2023-08-07T13:35:37;15.10;56.50
41220;DHT22;26951;47.338;9.196;2023-08-07T13:38:21;15.10;54.30
41220;DHT22;26951;47.338;9.196;2023-08-07T13:41:06;15.00;54.20
41220;DHT22;26951;47.338;9.196;2023-08-07T13:43:51;14.90;53.40
41220;DHT22;26951;47.338;9.196;2023-08-07T13:46:35;15.00;53.40
41220;DHT22;26951;47.338;9.196;2023-08-07T13:49:21;15.10;54.20
41220;DHT22;26951;47.338;9.196;2023-08-07T13:52:05;15.20;56.70
41220;DHT22;26951;47.338;9.196;2023-08-07T13:54:50;15.40;51.00
41220;DHT22;26951;47.338;9.196;2023-08-07T13:57:34;15.50;52.30
41220;DHT22;26951;47.338;9.196;2023-08-07T14:00:19;15.40;48.70
41220;DHT22;26951;47.338;9.196;2023-08-07T14:03:03;15.10;48.00
41220;DHT22;26951;47.338;9.196;2023-08-07T14:05:47;14.90;48.10
41220;DHT22;26951;47.338;9.196;2023-08-07T14:08:32;14.90;51.60
41220;DHT22;26951;47.338;9.196;2023-08-07T14:11:18;14.80;54.60
41220;DHT22;26951;47.338;9.196;2023-08-07T14:14:04;14.60;51.20
41220;DHT22;26951;47.338;9.196;2023-08-07T14:16:48;14.20;53.30
41220;DHT22;26951;47.338;9.196;2023-08-07T14:19:32;13.90;53.30
41220;DHT22;26951;47.338;9.196;2023-08-07T14:22:16;13.70;55.10
41220;DHT22;26951;47.338;9.196;2023-08-07T14:25:01;13.70;59.10
41220;DHT22;26951;47.338;9.196;2023-08-07T14:27:45;13.70;60.90
41220;DHT22;26951;47.338;9.196;2023-08-07T14:30:29;13.70;64.50
41220;DHT22;26951;47.338;9.196;2023-08-07T14:33:13;14.00;66.60
41220;DHT22;26951;47.338;9.196;2023-08-07T14:35:57;14.30;61.60
41220;DHT22;26951;47.338;9.196;2023-08-07T14:38:41;14.50;62.40
41220;DHT22;26951;47.338;9.196;2023-08-07T14:41:25;14.80;60.80
41220;DHT22;26951;47.338;9.196;2023-08-07T14:44:10;15.00;63.30
41220;DHT22;26951;47.338;9.196;2023-08-07T14:46:54;15.20;62.00
41220;DHT22;26951;47.338;9.196;2023-08-07T14:49:38;15.40;65.50
41220;DHT22;26951;47.338;9.196;2023-08-07T14:52:22;15.50;64.60
41220;DHT22;26951;47.338;9.196;2023-08-07T14:55:06;15.40;56.90
41220;DHT22;26951;47.338;9.196;2023-08-07T14:57:51;15.50;57.80
41220;DHT22;26951;47.338;9.196;2023-08-07T15:00:36;15.50;58.00
41220;DHT22;26951;47.338;9.196;2023-08-07T15:03:20;15.60;61.80
41220;DHT22;26951;47.338;9.196;2023-08-07T15:06:03;15.50;56.70
41220;DHT22;26951;47.338;9.196;2023-08-07T15:08:48;15.50;58.40
41220;DHT22;26951;47.338;9.196;2023-08-07T15:11:33;15.50;54.30
41220;DHT22;26951;47.338;9.196;2023-08-07T15:14:17;15.30;52.50
41220;DHT22;26951;47.338;9.196;2023-08-07T15:17:01;15.00;54.30
41220;DHT22;26951;47.338;9.196;2023-08-07T15:19:45;14.90;52.60
41220;DHT22;26951;47.338;9.196;2023-08-07T15:22:29;14.50;55.10
41220;DHT22;26951;47.338;9.196;2023-08-07T15:25:14;14.10;56.70
41220;DHT22;26951;47.338;9.196;2023-08-07T15:27:58;14.10;58.90
41220;DHT22;26951;47.338;9.196;2023-08-07T15:30:48;14.00;60.10
41220;DHT22;26951;47.338;9.196;2023-08-07T15:33:33;13.90;61.00
41220;DHT22;26951;47.338;9.196;2023-08-07T15:36:17;13.90;59.20
41220;DHT22;26951;47.338;9.196;2023-08-07T15:39:01;13.90;62.30
41220;DHT22;26951;47.338;9.196;2023-08-07T15:41:46;13.80;60.40
41220;DHT22;26951;47.338;9.196;2023-08-07T15:44:30;13.80;60.60
41220;DHT22;26951;47.338;9.196;2023-08-07T15:47:14;13.90;60.80
41220;DHT22;26951;47.338;9.196;2023-08-07T15:50:00;13.90;62.00
41220;DHT22;26951;47.338;9.196;2023-08-07T15:52:44;14.10;63.10
41220;DHT22;26951;47.338;9.196;2023-08-07T15:55:28;14.20;62.10
41220;DHT22;26951;47.338;9.196;2023-08-07T15:58:13;14.20;62.50
41220;DHT22;26951;47.338;9.196;2023-08-07T16:00:57;14.20;60.60
41220;DHT22;26951;47.338;9.196;2023-08-07T16:03:42;14.20;58.80
41220;DHT22;26951;47.338;9.196;2023-08-07T16:06:26;14.20;57.10
41220;DHT22;26951;47.338;9.196;2023-08-07T16:09:10;14.10;57.50
41220;DHT22;26951;47.338;9.196;2023-08-07T16:11:55;14.20;57.60
41220;DHT22;26951;47.338;9.196;2023-08-07T16:14:39;14.20;56.30
41220;DHT22;26951;47.338;9.196;2023-08-07T16:17:23;14.20;55.90
41220;DHT22;26951;47.338;9.196;2023-08-07T16:20:08;14.00;57.10
41220;DHT22;26951;47.338;9.196;2023-08-07T16:22:52;14.00;56.50
41220;DHT22;26951;47.338;9.196;2023-08-07T16:25:36;13.90;54.80
41220;DHT22;26951;47.338;9.196;2023-08-07T16:28:20;13.90;56.30
41220;DHT22;26951;47.338;9.196;2023-08-07T16:31:05;13.90;55.70
41220;DHT22;26951;47.338;9.196;2023-08-07T16:33:49;14.00;57.10
41220;DHT22;26951;47.338;9.196;2023-08-07T16:36:33;14.00;57.40
41220;DHT22;26951;47.338;9.196;2023-08-07T16:39:17;14.00;58.40
41220;DHT22;26951;47.338;9.196;2023-08-07T16:42:01;14.10;59.20
41220;DHT22;26951;47.338;9.196;2023-08-07T16:44:45;14.10;59.50
41220;DHT22;26951;47.338;9.196;2023-08-07T16:47:30;14.10;58.70
41220;DHT22;26951;47.338;9.196;2023-08-07T16:50:14;14.10;59.00
41220;DHT22;26951;47.338;9.196;2023-08-07T16:52:58;14.10;58.10
41220;DHT22;26951;47.338;9.196;2023-08-07T16:55:43;14.10;57.70
41220;DHT22;26951;47.338;9.196;2023-08-07T16:58:28;14.10;58.70
41220;DHT22;26951;47.338;9.196;2023-08-07T17:01:12;14.00;59.90
41220;DHT22;26951;47.338;9.196;2023-08-07T17:03:56;14.00;60.50
41220;DHT22;26951;47.338;9.196;2023-08-07T17:06:40;14.00;61.00
41220;DHT22;26951;47.338;9.196;2023-08-07T17:09:25;14.00;61.30
41220;DHT22;26951;47.338;9.196;2023-08-07T17:12:09;14.00;61.20
41220;DHT22;26951;47.338;9.196;2023-08-07T17:14:53;14.00;61.40
41220;DHT22;26951;47.338;9.196;2023-08-07T17:17:38;13.90;60.30
41220;DHT22;26951;47.338;9.196;2023-08-07T17:20:22;13.80;61.00
41220;DHT22;26951;47.338;9.196;2023-08-07T17:23:06;13.80;62.10
41220;DHT22;26951;47.338;9.196;2023-08-07T17:25:50;13.80;62.20
41220;DHT22;26951;47.338;9.196;2023-08-07T17:28:36;13.80;62.90